TimeCST,TemperatureF,Dew PointF,Humidity,Sea Level PressureIn,VisibilityMPH,Wind Direction,Wind SpeedMPH,Gust SpeedMPH,PrecipitationIn,Events,Conditions,WindDirDegrees,DateUTC
12:53 AM,54.0,45.0,72,30.25,10.0,NNW,5.8,-,N/A,,Overcast,340,2013-01-20 06:53:00
1:53 AM,53.1,46.0,77,30.24,10.0,Calm,Calm,-,N/A,,Mostly Cloudy,0,2013-01-20 07:53:00
2:53 AM,52.0,46.0,80,30.23,10.0,North,3.5,-,N/A,,Mostly Cloudy,360,2013-01-20 08:53:00
3:53 AM,52.0,46.0,80,30.23,10.0,Calm,Calm,-,N/A,,Mostly Cloudy,0,2013-01-20 09:53:00
4:53 AM,50.0,46.0,86,30.22,10.0,Calm,Calm,-,N/A,,Clear,0,2013-01-20 10:53:00
5:53 AM,50.0,46.0,86,30.23,10.0,Calm,Calm,-,N/A,,Clear,0,2013-01-20 11:53:00
6:53 AM,50.0,44.1,80,30.24,10.0,North,5.8,-,N/A,,Clear,350,2013-01-20 12:53:00
7:53 AM,54.0,46.0,75,30.25,10.0,North,4.6,-,N/A,,Clear,360,2013-01-20 13:53:00
8:53 AM,57.0,45.0,64,30.26,10.0,North,5.8,-,N/A,,Clear,10,2013-01-20 14:53:00
9:53 AM,62.1,45.0,53,30.26,10.0,North,5.8,-,N/A,,Clear,350,2013-01-20 15:53:00
10:53 AM,64.0,45.0,50,30.23,10.0,Variable,5.8,-,N/A,,Clear,0,2013-01-20 16:53:00
11:53 AM,64.9,43.0,45,30.20,10.0,North,5.8,-,N/A,,Clear,350,2013-01-20 17:53:00
12:53 PM,66.0,43.0,43,30.17,10.0,NE,3.5,-,N/A,,Clear,40,2013-01-20 18:53:00
1:53 PM,64.9,44.1,47,30.14,10.0,Variable,3.5,-,N/A,,Clear,0,2013-01-20 19:53:00
2:53 PM,64.0,45.0,50,30.13,10.0,WSW,6.9,-,N/A,,Clear,240,2013-01-20 20:53:00
3:53 PM,64.0,45.0,50,30.13,10.0,West,5.8,-,N/A,,Clear,260,2013-01-20 21:53:00
4:53 PM,62.1,46.0,56,30.14,10.0,WSW,3.5,-,N/A,,Clear,240,2013-01-20 22:53:00
5:53 PM,59.0,46.0,62,30.13,10.0,Calm,Calm,-,N/A,,Clear,0,2013-01-20 23:53:00
6:53 PM,55.0,46.9,74,30.14,10.0,Calm,Calm,-,N/A,,Clear,0,2013-01-21 00:53:00
7:53 PM,54.0,46.9,77,30.14,10.0,NNW,3.5,-,N/A,,Clear,330,2013-01-21 01:53:00
8:53 PM,53.1,46.0,77,30.16,10.0,Calm,Calm,-,N/A,,Clear,0,2013-01-21 02:53:00
9:53 PM,52.0,48.0,86,30.15,10.0,Calm,Calm,-,N/A,,Clear,0,2013-01-21 03:53:00
10:53 PM,52.0,46.9,83,30.16,10.0,Calm,Calm,-,N/A,,Clear,0,2013-01-21 04:53:00
11:53 PM,54.0,48.0,80,30.14,10.0,Calm,Calm,-,N/A,,Clear,0,2013-01-21 05:53:00